Latest Weather Observations for Hopetoun Airport

IDV60801

Issued at 6:05 pm EST Thursday 2 October 2014 (issued every 30 minutes, with the page automatically refreshed every 10 minutes)

About weather observations | Map of weather stations | Latest weather observations for VIC | Other Formats
Station Details ID: 077010 Name: HOPETOUN AIRPORT Lat: -35.72 Lon: 142.36 Height: 77.3 m
Data from the previous 72 hours. | See also: Recent months at Hopetoun Airport
Date/Time
EST
Temp
°C
App
Temp
°C
Dew
Point
Rel
Hum
%
Delta-T
°C
Wind Press
QNH
hPa
Press
MSL
hPa
Rain
since 9 am
mm
Dir
 
Spd
km/h
Gust
km/h
Spd
kts
Gust
kts
02/06:00pm 19.0 14.7 6.8 45 6.1 SSW 19 24 10 13 1023.3 1023.2 0.0
02/05:30pm 19.6 15.8 5.6 40 6.9 SSW 15 22 8 12 1023.2 1023.1 0.0
02/05:00pm 19.9 15.7 5.9 40 6.9 SSW 17 24 9 13 1023.0 1022.9 0.0
02/04:30pm 20.5 15.5 6.5 40 7.1 SW 22 33 12 18 1023.1 1023.0 0.0
02/04:00pm 20.6 16.4 5.8 38 7.4 SSW 17 24 9 13 1023.3 1023.2 0.0
02/03:30pm 20.8 16.7 6.0 38 7.4 SSW 17 30 9 16 1023.3 1023.2 0.0
02/03:00pm 21.1 16.7 6.6 39 7.3 WSW 19 28 10 15 1023.6 1023.5 0.0
02/02:30pm 20.5 16.0 6.1 39 7.2 SSW 19 24 10 13 1023.9 1023.8 0.0
02/02:00pm 19.4 14.8 5.5 40 6.8 SW 19 28 10 15 1024.4 1024.3 0.0
02/01:30pm 19.4 14.4 6.5 43 6.5 SW 22 28 12 15 1024.7 1024.7 0.0
02/01:00pm 18.4 14.2 5.9 44 6.1 SW 17 28 9 15 1025.1 1025.1 0.0
02/12:30pm 16.7 12.4 5.3 47 5.5 S 17 26 9 14 1025.7 1025.7 0.0
02/12:00pm 17.6 12.9 5.9 46 5.7 WSW 20 35 11 19 1026.2 1026.2 0.0
02/11:30am 15.3 10.3 4.7 49 5.0 SW 20 28 11 15 1026.5 1026.5 0.0
02/11:00am 14.4 9.7 5.2 54 4.3 SW 19 32 10 17 1026.9 1026.9 0.0
02/10:30am 14.2 9.3 5.3 55 4.2 SW 20 28 11 15 1027.3 1027.3 0.0
02/10:00am 14.4 10.2 5.5 55 4.2 SW 17 24 9 13 1027.5 1027.5 0.0
02/09:30am 13.6 8.7 5.3 57 3.9 SSW 20 30 11 16 1027.6 1027.6 0.0
02/09:00am 12.9 8.2 5.3 60 3.5 SSW 19 28 10 15 1027.5 1027.5 0.0
02/08:30am 12.0 8.0 5.0 62 3.2 SSW 15 26 8 14 1027.4 1027.4 0.0
02/08:00am 10.6 7.0 5.2 69 2.5 SSW 13 17 7 9 1027.3 1027.3 0.0
02/07:30am 8.3 5.9 5.1 80 1.4 SW 7 13 4 7 1027.2 1027.2 0.0
02/07:00am 4.0 2.1 3.0 93 0.4 SSW 2 4 1 2 1027.0 1027.0 0.0
02/06:30am 3.3 0.6 2.4 94 0.4 SSW 6 6 3 3 1026.6 1026.6 0.0
02/06:00am 2.0 -0.6 1.0 93 0.4 SSW 4 6 2 3 1026.4 1026.4 0.0
02/05:30am 3.0 0.5 1.7 91 0.5 SSW 4 4 2 2 1026.5 1026.5 0.0
02/05:00am 3.9 1.6 2.6 91 0.5 SSW 4 6 2 3 1026.4 1026.4 0.0
02/04:30am 4.2 1.5 2.7 90 0.6 SSW 6 6 3 3 1026.3 1026.3 0.0
02/04:00am 3.5 0.7 1.9 89 0.6 SW 6 6 3 3 1026.2 1026.2 0.0
02/03:30am 3.5 0.1 1.7 88 0.7 SW 9 9 5 5 1026.2 1026.2 0.0
02/03:00am 4.4 1.6 2.1 85 0.9 SSW 6 7 3 4 1026.2 1026.2 0.0
02/02:30am 5.2 2.6 3.1 86 0.9 SSW 6 7 3 4 1026.4 1026.4 0.0
02/02:00am 5.0 2.1 2.4 83 1.0 SSW 7 9 4 5 1026.5 1026.5 0.0
02/01:30am 6.1 3.4 2.9 80 1.3 SSW 6 9 3 5 1026.8 1026.8 0.0
02/01:00am 6.0 2.4 2.8 80 1.3 SSW 11 11 6 6 1027.0 1027.0 0.0
02/12:30am 5.8 2.8 1.9 76 1.6 SSW 7 9 4 5 1027.1 1027.1 0.0
02/12:00am 7.6 4.4 2.9 72 2.0 S 9 11 5 6 1027.0 1027.0 0.0
 
Date/Time
EST
Temp
°C
App
Temp
°C
Dew
Point
Rel
Hum
%
Delta-T
°C
Wind Press
QNH
hPa
Press
MSL
hPa
Rain
since 9 am
mm
Dir
 
Spd
km/h
Gust
km/h
Spd
kts
Gust
kts
01/11:30pm 7.6 4.7 2.7 71 2.1 S 7 9 4 5 1027.0 1027.0 0.0
01/11:00pm 8.0 5.1 2.5 68 2.3 SSW 7 9 4 5 1027.0 1027.0 0.0
01/10:30pm 8.3 5.4 2.8 68 2.3 SSW 7 9 4 5 1027.0 1027.0 0.0
01/10:00pm 8.0 4.7 2.3 67 2.4 SSW 9 9 5 5 1026.6 1026.6 0.0
01/09:30pm 10.6 7.8 2.9 59 3.3 S 7 9 4 5 1026.5 1026.5 0.0
01/09:00pm 11.5 8.3 3.0 56 3.7 S 9 13 5 7 1026.4 1026.4 0.0
01/08:30pm 11.5 8.6 2.8 55 3.8 S 7 9 4 5 1026.4 1026.4 0.0
01/08:00pm 12.2 9.0 2.9 53 4.1 SSW 9 13 5 7 1026.2 1026.2 0.0
01/07:30pm 12.8 8.7 2.4 49 4.6 SSW 13 15 7 8 1025.9 1025.9 0.0
01/07:00pm 14.1 10.0 2.4 45 5.1 SSW 13 17 7 9 1025.6 1025.6 0.0
01/06:30pm 15.4 10.5 1.9 40 6.0 SSW 17 22 9 12 1025.1 1025.1 0.0
01/06:00pm 16.6 11.0 1.5 36 6.7 SSW 20 26 11 14 1025.1 1025.1 0.0
01/05:30pm 17.3 11.7 1.3 34 7.1 SW 20 30 11 16 1024.9 1024.9 0.0
01/05:00pm 17.8 11.8 1.3 33 7.3 WSW 22 32 12 17 1024.6 1024.6 0.0
01/04:30pm 18.2 12.6 1.3 32 7.6 SSW 20 30 11 16 1024.7 1024.7 0.0
01/04:00pm 18.3 12.8 0.9 31 7.7 WSW 19 30 10 16 1024.8 1024.8 0.0
01/03:30pm 18.2 12.2 0.8 31 7.7 WSW 22 33 12 18 1024.8 1024.8 0.0
01/03:00pm 18.4 11.2 1.0 31 7.7 SW 28 35 15 19 1025.0 1025.0 0.0
01/02:30pm 17.7 12.2 0.8 32 7.5 WSW 19 28 10 15 1025.1 1025.1 0.0
01/02:00pm 17.2 11.5 0.4 32 7.3 W 20 28 11 15 1025.1 1025.1 0.0
01/01:30pm 16.7 11.6 0.8 34 7.0 SSW 17 33 9 18 1025.6 1025.6 0.0
01/01:00pm 16.7 11.6 0.8 34 6.9 SSW 17 32 9 17 1026.0 1026.0 0.0
01/12:30pm 15.7 10.7 1.1 37 6.4 SSW 17 32 9 17 1026.3 1026.3 0.0
01/12:00pm 16.4 11.4 1.3 36 6.6 SSW 17 28 9 15 1026.5 1026.5 0.0
01/11:30am 14.9 9.8 0.7 38 6.1 SSW 17 28 9 15 1026.7 1026.7 0.0
01/11:00am 14.9 9.4 2.1 42 5.6 SSW 20 33 11 18 1026.8 1026.8 0.0
01/10:30am 14.2 8.7 1.8 43 5.4 SSW 20 32 11 17 1026.9 1026.9 0.0
01/10:00am 13.9 8.6 2.8 47 4.9 SSW 20 33 11 18 1026.8 1026.8 0.0
01/09:30am 12.8 7.5 2.9 51 4.4 SSW 20 32 11 17 1026.9 1027.0 0.0
01/09:00am 12.4 7.8 3.6 55 3.9 SSW 17 24 9 13 1026.6 1026.7 0.0
01/08:30am 10.2 5.9 3.5 63 2.9 SW 15 20 8 11 1026.2 1026.3 0.0
01/08:00am 8.7 4.5 3.9 72 2.1 SW 15 20 8 11 1025.8 1025.9 0.0
01/07:30am 6.8 3.8 4.1 83 1.2 SW 9 13 5 7 1025.3 1025.4 0.0
01/07:00am 4.1 1.0 3.4 95 0.3 WSW 9 13 5 7 1025.0 1025.1 0.0
01/06:30am 1.5 -2.1 0.8 95 0.3 W 9 11 5 6 1024.5 1024.5 0.0
01/06:00am 1.1 -2.2 0.2 94 0.3 WSW 7 9 4 5 1023.9 1023.9 0.0
01/05:30am 1.8 -1.4 0.8 93 0.4 W 7 9 4 5 1023.4 1023.4 0.0
01/05:00am 2.9 -0.5 2.0 94 0.4 WSW 9 11 5 6 1022.9 1022.9 0.0
01/04:30am 2.9 -0.5 1.9 93 0.4 W 9 11 5 6 1022.5 1022.5 0.0
01/04:00am 4.0 0.0 3.0 93 0.4 W 13 15 7 8 1022.2 1022.2 0.0
01/03:30am 3.6 0.3 2.4 92 0.5 W 9 9 5 5 1021.8 1021.8 0.0
01/03:00am 4.7 0.8 3.4 91 0.5 W 13 15 7 8 1021.5 1021.5 0.0
01/02:30am 4.9 1.4 3.4 90 0.6 WSW 11 13 6 7 1021.4 1021.4 0.0
01/02:00am 4.9 1.7 2.9 87 0.8 WSW 9 11 5 6 1021.1 1021.1 0.0
01/01:30am 5.8 2.3 3.5 85 1.0 W 11 15 6 8 1020.9 1020.9 0.0
01/01:00am 6.5 2.6 3.3 80 1.3 W 13 15 7 8 1020.7 1020.7 0.0
01/12:30am 7.5 2.8 3.4 75 1.7 W 17 20 9 11 1020.6 1020.6 0.0
01/12:00am 7.9 3.6 3.2 72 2.0 WSW 15 17 8 9 1020.2 1020.2 0.0
 
Date/Time
EST
Temp
°C
App
Temp
°C
Dew
Point
Rel
Hum
%
Delta-T
°C
Wind Press
QNH
hPa
Press
MSL
hPa
Rain
since 9 am
mm
Dir
 
Spd
km/h
Gust
km/h
Spd
kts
Gust
kts
30/11:30pm 9.0 4.3 3.2 67 2.5 WSW 17 24 9 13 1019.8 1019.8 0.0
30/11:00pm 9.9 4.9 3.4 64 2.8 WSW 19 24 10 13 1019.6 1019.6 0.0
30/10:30pm 10.7 5.7 3.7 62 3.1 WSW 19 26 10 14 1019.3 1019.3 0.0
30/10:00pm 10.9 5.8 3.9 62 3.1 WSW 20 28 11 15 1019.0 1019.0 0.0
30/09:30pm 10.7 6.1 3.7 62 3.1 WSW 17 24 9 13 1018.7 1018.7 0.0
30/09:00pm 11.1 4.7 3.4 59 3.4 SW 26 37 14 20 1018.5 1018.5 0.0
30/08:30pm 11.7 6.3 2.7 54 3.9 WSW 20 28 11 15 1017.9 1017.9 0.0
30/08:00pm 12.5 5.6 2.4 50 4.4 WSW 28 37 15 20 1017.3 1017.3 0.0
30/07:30pm 13.1 7.0 2.6 49 4.6 WSW 24 39 13 21 1016.5 1016.5 0.0
30/07:00pm 13.5 6.6 2.7 48 4.8 WSW 28 39 15 21 1015.6 1015.7 0.0
30/06:30pm 14.7 5.7 2.3 43 5.5 WSW 39 52 21 28 1014.7 1014.8 0.0
30/06:00pm 15.4 7.6 4.8 49 5.0 W 35 56 19 30 1013.8 1013.8 0.0
30/05:30pm 15.3 6.8 5.2 51 4.8 W 39 52 21 28 1013.4 1013.4 0.0
30/05:00pm 14.9 6.5 7.5 61 3.7 WSW 41 54 22 29 1013.4 1013.4 0.0
30/04:30pm 16.1 6.9 7.8 58 4.2 WSW 46 59 25 32 1012.7 1012.7 0.0
30/04:00pm 16.8 6.7 9.0 60 4.0 SW 52 72 28 39 1012.4 1012.4 0.0
30/03:36pm 19.4 8.2 8.4 49 5.7 WSW 57 78 31 42 1011.2 1011.2 0.0
30/03:30pm 19.1 7.9 7.5 47 5.9 WSW 56 72 30 39 1011.0 1011.0 0.0
30/03:05pm 18.8 7.8 9.3 54 5.0 WSW 57 76 31 41 1010.6 1010.6 0.0
30/03:02pm 18.9 7.4 8.8 52 5.3 WSW 59 76 32 41 1010.4 1010.4 0.0
30/03:00pm 20.5 8.6 7.2 42 6.8 W 59 78 32 42 1010.2 1010.2 0.0
30/02:30pm 23.4 11.4 3.9 28 9.6 W 56 80 30 43 1009.3 1009.3 0.0
30/02:00pm 23.2 10.2 3.7 28 9.5 W 61 80 33 43 1008.9 1008.9 0.0
30/01:30pm 25.4 14.0 2.8 23 11.0 WNW 52 74 28 40 1008.8 1008.8 0.0
30/01:00pm 24.6 12.4 2.7 24 10.6 WNW 56 80 30 43 1008.9 1008.9 0.0
30/12:30pm 24.5 12.2 3.2 25 10.4 WNW 57 78 31 42 1008.9 1008.9 0.0
30/12:00pm 24.7 13.3 5.0 28 10.0 WNW 54 72 29 39 1009.5 1009.5 0.0
30/11:32am 24.8 14.7 5.6 29 9.8 WNW 48 70 26 38 1009.8 1009.8 0.0
30/11:30am 24.3 13.7 5.1 29 9.7 WNW 50 61 27 33 1009.8 1009.8 0.0
30/11:09am 24.0 14.7 5.8 31 9.3 WNW 44 67 24 36 1010.1 1010.1 0.0
30/11:00am 23.7 14.7 6.5 33 8.9 NW 43 56 23 30 1010.2 1010.2 0.0
30/10:30am 22.6 14.2 5.5 33 8.6 NW 39 52 21 28 1010.6 1010.6 0.0
30/10:22am 22.1 14.8 5.5 34 8.3 NW 33 52 18 28 1010.7 1010.7 0.0
30/10:00am 21.3 14.0 7.2 40 7.3 NNW 35 46 19 25 1010.9 1010.9 0.0
30/09:30am 20.3 14.3 8.6 47 6.1 N 30 37 16 20 1011.1 1011.1 0.0
30/09:00am 18.7 13.9 8.7 52 5.2 NNW 24 32 13 17 1011.8 1011.8 0.0
30/08:30am 16.7 13.0 9.4 62 3.8 N 19 24 10 13 1012.1 1012.1 0.0
30/08:00am 13.7 10.7 9.4 75 2.2 N 15 19 8 10 1012.2 1012.2 0.0
30/07:30am 11.1 8.6 8.1 82 1.5 N 11 15 6 8 1012.3 1012.3 0.0
30/07:00am 8.9 6.5 7.2 89 0.8 N 9 11 5 6 1012.4 1012.4 0.0
30/06:30am 6.6 4.5 5.7 94 0.4 N 6 7 3 4 1012.4 1012.4 0.0
30/06:00am 6.2 4.0 5.3 94 0.4 N 6 7 3 4 1012.4 1012.4 0.0
30/05:30am 5.7 3.2 4.7 93 0.4 N 7 9 4 5 1012.1 1012.1 0.0
30/05:00am 5.7 3.3 4.2 90 0.6 N 6 7 3 4 1012.1 1012.1 0.0
30/04:30am 6.1 3.1 4.3 88 0.8 NNW 9 11 5 6 1012.0 1012.0 0.0
30/04:00am 6.8 4.1 5.6 92 0.5 N 9 13 5 7 1012.2 1012.2 0.0
30/03:30am 5.7 2.6 3.7 87 0.8 NNW 9 11 5 6 1012.5 1012.5 0.0
30/03:00am 6.4 3.9 3.6 82 1.2 NNW 6 7 3 4 1012.6 1012.6 0.0
30/02:30am 7.0 4.5 4.7 85 1.0 NNW 7 9 4 5 1012.8 1012.8 0.0
30/02:00am 6.7 4.2 3.7 81 1.3 NW 6 7 3 4 1013.0 1013.0 0.0
30/01:30am 7.7 5.3 4.5 80 1.4 NW 6 7 3 4 1013.1 1013.1 0.0
30/01:00am 8.3 6.3 4.5 77 1.7 N 4 4 2 2 1013.2 1013.2 0.0
30/12:30am 9.3 7.9 5.3 76 1.8 W 2 4 1 2 1013.2 1013.2 0.0
30/12:00am 9.6 7.3 5.0 73 2.1 W 6 7 3 4 1013.3 1013.3 0.0
 
Date/Time
EST
Temp
°C
App
Temp
°C
Dew
Point
Rel
Hum
%
Delta-T
°C
Wind Press
QNH
hPa
Press
MSL
hPa
Rain
since 9 am
mm
Dir
 
Spd
km/h
Gust
km/h
Spd
kts
Gust
kts
29/11:30pm 9.8 7.4 5.4 74 2.0 W 7 9 4 5 1013.3 1013.3 0.0
29/11:00pm 10.7 7.5 5.3 69 2.5 WNW 11 11 6 6 1013.5 1013.5 0.0
29/10:30pm 12.3 9.6 5.7 64 3.1 N 9 11 5 6 1013.1 1013.1 0.0
29/10:00pm 13.3 10.6 5.7 60 3.6 N 9 9 5 5 1013.1 1013.1 0.0
29/09:30pm 13.9 11.0 6.3 60 3.7 N 11 13 6 7 1013.3 1013.3 0.0
29/09:00pm 13.4 10.7 5.8 60 3.6 N 9 11 5 6 1013.3 1013.3 0.0
29/08:30pm 13.7 11.5 5.3 57 3.9 N 6 7 3 4 1013.0 1013.0 0.0
29/08:00pm 14.9 12.5 5.4 53 4.5 NNW 7 7 4 4 1013.0 1013.0 0.0
29/07:30pm 15.5 12.8 5.4 51 4.8 NNW 9 9 5 5 1012.6 1012.6 0.0
29/07:00pm 16.6 13.6 6.1 50 5.1 NW 11 13 6 7 1012.5 1012.5 0.0
29/06:30pm 18.9 15.9 6.1 43 6.4 NW 11 13 6 7 1012.3 1012.3 0.0

Other Formats:

Comma delimited format used in spreadsheet applications
http://www.bom.gov.au/fwo/IDV60801/IDV60801.94838.axf

JavaScript Object Notation format (JSON) in row-major order
http://www.bom.gov.au/fwo/IDV60801/IDV60801.94838.json